createdAt,value
2022-10-05T00:01:40.250Z,25.50
2022-10-05T00:04:17.385Z,22.58
2022-10-05T00:11:19.976Z,26.50
2022-10-05T00:13:49.591Z,26.20
2022-10-05T00:16:23.692Z,24.75
2022-10-05T00:18:55.051Z,27.50
2022-10-05T00:21:28.359Z,22.55
2022-10-05T00:23:59.282Z,24.90
2022-10-05T00:27:10.704Z,22.92
2022-10-05T00:29:40.366Z,22.38
2022-10-05T00:32:13.996Z,23.52
2022-10-05T00:34:45.221Z,19.77
2022-10-05T00:37:15.541Z,22.90
2022-10-05T00:39:44.809Z,24.88
2022-10-05T00:42:29.570Z,25.45
2022-10-05T00:45:17.505Z,21.90
2022-10-05T00:48:14.618Z,23.67
2022-10-05T00:50:46.596Z,23.92
2022-10-05T00:53:48.871Z,21.83
2022-10-05T00:56:44.887Z,20.90
2022-10-05T00:59:26.069Z,20.23
2022-10-05T01:02:37.079Z,19.45
2022-10-05T01:05:17.203Z,20.70
2022-10-05T01:08:01.619Z,24.38
2022-10-05T01:10:47.396Z,20.60
2022-10-05T01:13:51.085Z,21.50
2022-10-05T01:16:28.763Z,22.70
2022-10-05T01:19:16.580Z,20.13
2022-10-05T01:22:14.915Z,23.92
2022-10-05T01:25:01.741Z,18.23
2022-10-05T01:27:56.402Z,14.05
2022-10-05T01:30:52.756Z,17.02
2022-10-05T01:33:43.237Z,21.85
2022-10-05T01:36:53.037Z,18.17
2022-10-05T01:39:52.189Z,20.50
2022-10-05T01:42:39.725Z,15.82
2022-10-05T01:45:29.134Z,15.02
2022-10-05T01:48:19.139Z,21.77
2022-10-05T01:51:21.898Z,16.52
2022-10-05T01:54:33.513Z,18.35
2022-10-05T01:57:22.168Z,17.20
2022-10-05T02:00:10.855Z,15.07
2022-10-05T02:03:05.543Z,16.20
2022-10-05T02:06:01.159Z,17.23
2022-10-05T02:08:44.581Z,15.95
2022-10-05T02:11:16.257Z,16.00
2022-10-05T02:13:59.499Z,14.55
2022-10-05T02:16:42.664Z,20.33
2022-10-05T02:19:26.603Z,16.63
2022-10-05T02:22:14.028Z,18.75
2022-10-05T02:24:53.368Z,15.07
2022-10-05T02:27:48.349Z,16.00
2022-10-05T02:30:20.030Z,16.60
2022-10-05T02:33:12.481Z,21.17
2022-10-05T02:35:42.064Z,17.63
2022-10-05T02:38:23.715Z,16.83
2022-10-05T02:41:07.191Z,16.08
2022-10-05T02:44:02.146Z,21.90
2022-10-05T02:46:42.177Z,17.75
2022-10-05T02:49:22.286Z,19.40
2022-10-05T02:52:10.824Z,18.92
2022-10-05T02:54:43.380Z,20.52
2022-10-05T02:57:27.909Z,17.42
2022-10-05T03:00:11.125Z,17.42
2022-10-05T03:02:49.232Z,15.23
2022-10-05T03:05:32.908Z,19.25
2022-10-05T03:08:10.838Z,20.23
2022-10-05T03:11:07.618Z,19.17
2022-10-05T03:14:01.653Z,19.48
2022-10-05T03:16:42.974Z,18.58
2022-10-05T03:19:49.130Z,18.92
2022-10-05T03:22:47.406Z,19.75
2022-10-05T03:25:58.348Z,21.17
2022-10-05T03:28:52.187Z,18.02
2022-10-05T03:31:40.089Z,20.88
2022-10-05T03:34:23.393Z,17.75
2022-10-05T03:37:03.658Z,22.20
2022-10-05T03:40:27.216Z,23.48
2022-10-05T03:43:25.317Z,21.98
2022-10-05T03:46:17.679Z,20.42
2022-10-05T03:49:24.220Z,18.83
2022-10-05T03:52:07.260Z,18.95
2022-10-05T03:54:40.839Z,26.17
2022-10-05T03:57:31.019Z,21.85
2022-10-05T04:00:52.834Z,21.88
2022-10-05T04:03:40.460Z,18.23
2022-10-05T04:06:32.066Z,21.17
2022-10-05T04:09:13.271Z,21.25
2022-10-05T04:11:54.575Z,18.30
2022-10-05T04:14:30.058Z,15.93
2022-10-05T04:17:13.152Z,19.35
2022-10-05T04:19:55.951Z,22.38
2022-10-05T04:22:36.275Z,17.85
2022-10-05T04:25:56.772Z,19.67
2022-10-05T04:29:00.227Z,21.27
2022-10-05T04:31:47.586Z,21.58
2022-10-05T04:34:51.908Z,17.52
2022-10-05T04:37:41.113Z,18.90
2022-10-05T04:40:19.544Z,19.67
2022-10-05T04:45:57.939Z,22.45
2022-10-05T04:48:48.778Z,20.35
2022-10-05T04:51:37.279Z,21.20
2022-10-05T04:54:26.495Z,23.10
2022-10-05T04:57:14.449Z,36.65
2022-10-05T05:00:49.969Z,38.20
2022-10-05T05:03:56.517Z,34.72
2022-10-05T05:07:07.385Z,30.08
2022-10-05T05:09:55.040Z,22.95
2022-10-05T05:12:27.205Z,27.15
2022-10-05T05:15:08.456Z,44.63
2022-10-05T05:18:02.043Z,40.40
2022-10-05T05:20:49.429Z,24.33
2022-10-05T05:23:32.724Z,20.52
2022-10-05T05:26:20.208Z,23.30
2022-10-05T05:28:56.572Z,25.38
2022-10-05T05:31:44.249Z,25.85
2022-10-05T05:34:54.719Z,22.35
2022-10-05T05:37:27.910Z,31.88
2022-10-05T05:40:08.332Z,30.10
2022-10-05T05:43:01.611Z,25.90
2022-10-05T05:45:47.913Z,20.17
2022-10-05T05:48:25.484Z,19.48
2022-10-05T05:51:09.270Z,21.90
2022-10-05T05:53:58.898Z,20.27
2022-10-05T05:56:35.712Z,22.83
2022-10-05T05:59:16.948Z,22.10
2022-10-05T06:01:59.538Z,23.05
2022-10-05T06:04:41.732Z,20.98
2022-10-05T06:07:17.668Z,24.88
2022-10-05T06:10:37.410Z,19.48
2022-10-05T06:13:27.046Z,24.45
2022-10-05T06:16:08.481Z,25.23
2022-10-05T06:18:42.986Z,30.55
2022-10-05T06:21:50.471Z,24.08
2022-10-05T06:24:27.750Z,18.80
2022-10-05T06:27:08.845Z,21.40
2022-10-05T06:29:59.506Z,18.77
2022-10-05T06:32:44.706Z,20.58
2022-10-05T06:35:32.151Z,19.65
2022-10-05T06:38:35.949Z,21.08
2022-10-05T06:41:41.535Z,24.85
2022-10-05T06:44:17.666Z,21.58
2022-10-05T06:47:24.341Z,24.38
2022-10-05T06:50:43.777Z,28.23
2022-10-05T06:54:05.442Z,22.20
2022-10-05T06:56:41.971Z,27.98
2022-10-05T06:59:41.469Z,24.00
2022-10-05T07:02:32.383Z,28.17
2022-10-05T07:05:28.275Z,29.88
2022-10-05T07:08:12.808Z,22.83
2022-10-05T07:11:04.562Z,26.17
2022-10-05T07:14:12.030Z,27.17
2022-10-05T07:17:07.165Z,25.17
2022-10-05T07:20:05.003Z,24.00
2022-10-05T07:22:59.545Z,21.77
2022-10-05T07:25:53.695Z,27.33
2022-10-05T07:28:38.044Z,24.70
2022-10-05T07:31:13.671Z,29.17
2022-10-05T07:34:24.802Z,32.80
2022-10-05T07:37:19.510Z,26.05
2022-10-05T07:40:12.853Z,28.63
2022-10-05T07:43:00.789Z,28.15
2022-10-05T07:45:41.368Z,26.33
2022-10-05T07:48:22.863Z,24.55
2022-10-05T07:50:59.837Z,28.90
2022-10-05T07:53:47.693Z,22.70
2022-10-05T07:56:37.977Z,21.63
2022-10-05T07:59:37.624Z,22.13
2022-10-05T08:02:31.042Z,23.67
2022-10-05T08:05:10.511Z,21.70
2022-10-05T08:07:40.647Z,22.73
2022-10-05T08:10:26.072Z,23.23
2022-10-05T08:13:02.964Z,18.40
2022-10-05T08:15:44.056Z,23.58
2022-10-05T08:18:16.315Z,22.55
2022-10-05T08:20:57.905Z,20.55
2022-10-05T08:23:39.573Z,24.27
2022-10-05T08:26:50.665Z,19.20
2022-10-05T08:29:53.566Z,25.45
2022-10-05T08:33:04.290Z,24.13
2022-10-05T08:35:39.618Z,23.38
2022-10-05T08:38:19.384Z,26.73
2022-10-05T08:40:57.984Z,24.13
2022-10-05T08:43:42.036Z,22.35
2022-10-05T08:46:22.666Z,22.88
2022-10-05T08:49:35.372Z,23.13
2022-10-05T08:52:29.884Z,24.73
2022-10-05T08:55:16.146Z,23.10
2022-10-05T08:58:04.237Z,22.17
2022-10-05T09:01:09.967Z,25.17
2022-10-05T09:04:16.454Z,22.63
2022-10-05T09:07:16.474Z,24.58
2022-10-05T09:09:51.493Z,26.33
2022-10-05T09:12:57.795Z,25.63
2022-10-05T09:15:36.467Z,25.02
2022-10-05T09:18:38.454Z,26.15
2022-10-05T09:21:35.419Z,33.17
2022-10-05T09:24:37.059Z,26.15
2022-10-05T09:27:16.602Z,28.40
2022-10-05T09:30:19.372Z,24.63
2022-10-05T09:33:10.519Z,27.38
2022-10-05T09:36:07.943Z,27.63
2022-10-05T09:38:55.699Z,30.15
2022-10-05T09:41:43.442Z,35.10
2022-10-05T09:46:57.898Z,26.17
2022-10-05T09:50:14.953Z,32.45
2022-10-05T09:52:59.130Z,29.27
2022-10-05T09:55:40.079Z,26.70
2022-10-05T09:58:46.931Z,31.90
2022-10-05T10:01:37.359Z,33.90
2022-10-05T10:04:38.229Z,27.77
2022-10-05T10:07:21.711Z,32.55
2022-10-05T10:10:05.891Z,35.72
2022-10-05T10:13:03.491Z,32.80
2022-10-05T10:15:58.609Z,28.90
2022-10-05T10:18:36.076Z,24.65
2022-10-05T10:21:47.284Z,29.92
2022-10-05T10:24:37.828Z,29.52
2022-10-05T10:27:28.456Z,29.20
2022-10-05T10:30:19.851Z,28.17
2022-10-05T10:33:27.050Z,24.17
2022-10-05T10:36:07.000Z,27.77
2022-10-05T10:38:59.362Z,22.20
2022-10-05T10:42:05.420Z,27.98
2022-10-05T10:44:55.165Z,28.98
2022-10-05T10:47:48.166Z,26.80
2022-10-05T10:50:49.669Z,33.05
2022-10-05T10:53:33.164Z,31.80
2022-10-05T10:56:23.189Z,35.30
2022-10-05T10:59:37.675Z,36.83
2022-10-05T11:02:41.827Z,38.25
2022-10-05T11:05:45.118Z,31.40
2022-10-05T11:08:59.379Z,34.08
2022-10-05T11:11:37.366Z,33.10
2022-10-05T11:14:29.705Z,30.83
2022-10-05T11:17:01.939Z,31.27
2022-10-05T11:19:46.323Z,30.42
2022-10-05T11:22:44.191Z,35.13
2022-10-05T11:25:55.725Z,27.52
2022-10-05T11:28:46.460Z,28.63
2022-10-05T11:31:52.408Z,26.38
2022-10-05T11:34:28.641Z,28.52
2022-10-05T11:37:16.783Z,25.67
2022-10-05T11:39:54.231Z,28.38
2022-10-05T11:42:28.844Z,23.33
2022-10-05T11:45:17.006Z,26.67
2022-10-05T11:48:16.996Z,28.40
2022-10-05T11:50:57.056Z,27.92
2022-10-05T11:53:33.153Z,28.60
2022-10-05T11:56:05.523Z,27.27
2022-10-05T11:58:48.671Z,32.63
2022-10-05T12:01:58.144Z,28.90
2022-10-05T12:05:02.966Z,24.08
2022-10-05T12:07:50.580Z,23.85
2022-10-05T12:10:33.605Z,24.38
2022-10-05T12:13:05.894Z,26.63
2022-10-05T12:15:51.065Z,24.02
2022-10-05T12:18:32.521Z,20.35
2022-10-05T12:21:25.970Z,28.38
2022-10-05T12:23:58.796Z,25.50
2022-10-05T12:26:37.882Z,26.80
2022-10-05T12:29:15.494Z,25.17
2022-10-05T12:32:04.662Z,30.90
2022-10-05T12:34:36.933Z,24.98
2022-10-05T12:37:37.686Z,23.83
2022-10-05T12:40:48.874Z,22.33
2022-10-05T12:43:55.079Z,25.83
2022-10-05T12:46:35.979Z,29.63
2022-10-05T12:49:23.870Z,24.15
2022-10-05T12:52:00.604Z,30.58
2022-10-05T12:54:45.060Z,28.58
2022-10-05T12:57:35.578Z,25.10
2022-10-05T13:00:07.777Z,26.88
2022-10-05T13:02:43.400Z,28.73
2022-10-05T13:05:12.469Z,27.17
2022-10-05T13:08:03.755Z,25.52
2022-10-05T13:11:01.839Z,28.67
2022-10-05T13:13:53.967Z,32.55
2022-10-05T13:16:34.977Z,26.40
2022-10-05T13:19:25.106Z,27.15
2022-10-05T13:22:24.925Z,25.27
2022-10-05T13:25:15.896Z,27.35
2022-10-05T13:28:03.475Z,25.42
2022-10-05T13:33:09.010Z,24.60
2022-10-05T13:38:28.092Z,28.27
2022-10-05T13:41:12.698Z,25.25
2022-10-05T13:43:44.881Z,25.13
2022-10-05T13:46:17.211Z,23.63
2022-10-05T13:49:23.205Z,24.98
2022-10-05T13:52:16.574Z,22.23
2022-10-05T13:55:23.334Z,23.42
2022-10-05T13:58:27.996Z,26.58
2022-10-05T14:01:01.879Z,25.17
2022-10-05T14:03:37.063Z,22.92
2022-10-05T14:06:30.822Z,23.13
2022-10-05T14:09:00.884Z,24.58
2022-10-05T14:11:36.367Z,20.02
2022-10-05T14:14:17.488Z,21.95
2022-10-05T14:16:58.433Z,25.40
2022-10-05T14:19:33.007Z,22.10
2022-10-05T14:22:04.758Z,17.05
2022-10-05T14:24:44.252Z,21.70
2022-10-05T14:27:49.522Z,22.20
2022-10-05T14:30:25.210Z,21.83
2022-10-05T14:33:20.015Z,15.43
2022-10-05T14:36:47.072Z,17.27
2022-10-05T14:39:32.226Z,15.93
2022-10-05T14:42:14.893Z,16.23
2022-10-05T14:45:14.015Z,14.18
2022-10-05T14:48:13.148Z,12.10
2022-10-05T14:51:00.159Z,14.50
2022-10-05T14:53:56.737Z,13.70
2022-10-05T14:56:41.453Z,13.00
2022-10-05T14:59:23.151Z,12.40
2022-10-05T15:02:25.179Z,14.40
2022-10-05T15:05:10.298Z,11.38
2022-10-05T15:07:52.055Z,13.10
2022-10-05T15:10:44.220Z,11.30
2022-10-05T15:13:29.908Z,13.00
2022-10-05T15:16:12.247Z,11.25
2022-10-05T15:18:45.390Z,14.00
2022-10-05T15:21:36.168Z,12.32
2022-10-05T15:24:11.573Z,13.10
2022-10-05T15:26:53.997Z,9.95
2022-10-05T15:29:52.206Z,10.98
2022-10-05T15:32:48.472Z,9.73
2022-10-05T15:35:45.696Z,10.45
2022-10-05T15:38:34.009Z,9.63
2022-10-05T15:41:21.353Z,13.18
2022-10-05T15:43:51.244Z,12.07
2022-10-05T15:46:34.946Z,11.73
2022-10-05T15:49:09.245Z,16.73
2022-10-05T15:51:50.984Z,11.98
2022-10-05T15:54:42.634Z,12.20
2022-10-05T15:57:39.027Z,11.60
2022-10-05T16:00:14.922Z,9.98
2022-10-05T16:03:10.718Z,11.60
2022-10-05T16:06:08.513Z,14.70
2022-10-05T16:09:12.490Z,11.18
2022-10-05T16:12:08.019Z,10.18
2022-10-05T16:14:49.066Z,11.02
2022-10-05T16:17:42.151Z,11.07
2022-10-05T16:20:52.332Z,11.38
2022-10-05T16:24:01.310Z,15.15
2022-10-05T16:26:54.481Z,13.07
2022-10-05T16:29:48.293Z,10.75
2022-10-05T16:32:23.341Z,12.98
2022-10-05T16:35:47.731Z,11.20
2022-10-05T16:38:44.389Z,13.52
2022-10-05T16:41:51.215Z,12.07
2022-10-05T16:44:45.130Z,11.68
2022-10-05T16:47:59.864Z,12.63
2022-10-05T16:50:38.470Z,15.32
2022-10-05T16:54:00.095Z,11.35
2022-10-05T16:56:51.965Z,10.88
2022-10-05T16:59:46.366Z,11.57
2022-10-05T17:02:29.208Z,12.38
2022-10-05T17:05:16.379Z,11.68
2022-10-05T17:08:16.283Z,12.20
2022-10-05T17:11:25.745Z,11.10
2022-10-05T17:14:14.870Z,17.08
2022-10-05T17:25:19.268Z,13.43
2022-10-05T17:28:37.368Z,10.85
2022-10-05T17:32:22.962Z,13.25
2022-10-05T17:35:01.687Z,12.95
2022-10-05T17:37:33.135Z,13.90
2022-10-05T17:40:43.192Z,11.07
2022-10-05T17:43:18.568Z,13.55
2022-10-05T17:45:47.796Z,13.40
2022-10-05T17:48:36.729Z,12.38
2022-10-05T17:51:57.501Z,14.50
2022-10-05T17:55:11.991Z,20.52
2022-10-05T17:57:42.759Z,19.20
2022-10-05T18:00:26.700Z,18.33
2022-10-05T18:02:58.691Z,22.42
2022-10-05T18:05:32.881Z,21.70
2022-10-05T18:12:18.868Z,15.65
2022-10-05T18:17:58.279Z,21.38
2022-10-05T18:20:31.051Z,20.15
2022-10-05T18:23:07.136Z,19.05
2022-10-05T18:28:40.115Z,22.02
2022-10-05T18:31:12.247Z,21.65
2022-10-05T18:34:19.198Z,22.23
2022-10-05T18:36:49.840Z,20.30
2022-10-05T18:40:10.977Z,20.88
2022-10-05T18:43:17.986Z,21.95
2022-10-05T18:46:18.359Z,22.07
2022-10-05T18:48:47.604Z,20.05
2022-10-05T18:52:04.236Z,19.38
2022-10-05T18:54:51.146Z,17.27
2022-10-05T18:57:43.288Z,23.30
2022-10-05T19:00:16.709Z,24.20
2022-10-05T19:02:58.814Z,29.52
2022-10-05T19:05:59.729Z,23.67
2022-10-05T19:08:42.706Z,24.77
2022-10-05T19:11:32.693Z,25.63
2022-10-05T19:14:43.278Z,23.80
2022-10-05T19:17:40.141Z,26.65
2022-10-05T19:20:38.407Z,27.35
2022-10-05T19:23:19.628Z,27.60
2022-10-05T19:26:15.429Z,26.63
2022-10-05T19:28:50.152Z,29.30
2022-10-05T19:36:04.561Z,33.35
2022-10-05T19:39:00.380Z,38.65
2022-10-05T19:41:44.624Z,35.05
2022-10-05T19:44:37.329Z,31.38
2022-10-05T19:47:11.114Z,35.80
2022-10-05T19:49:56.230Z,33.13
2022-10-05T19:52:31.913Z,41.30
2022-10-05T19:55:32.971Z,37.13
2022-10-05T19:58:02.190Z,38.45
2022-10-05T20:00:36.903Z,34.90
2022-10-05T20:07:37.207Z,40.92
2022-10-05T20:10:32.627Z,45.42
2022-10-05T20:13:06.904Z,51.17
2022-10-05T20:15:56.307Z,53.35
2022-10-05T20:18:56.762Z,53.28
2022-10-05T20:21:44.052Z,54.20
2022-10-05T20:24:18.028Z,56.20
2022-10-05T20:27:16.212Z,51.88
2022-10-05T20:29:46.394Z,49.00
2022-10-05T20:32:21.265Z,44.15
2022-10-05T20:34:52.086Z,48.22
2022-10-05T20:37:21.789Z,43.80
2022-10-05T20:39:54.472Z,37.78
2022-10-05T20:42:27.879Z,42.95
2022-10-05T20:44:58.787Z,41.28
2022-10-05T20:47:30.391Z,42.38
2022-10-05T20:50:08.136Z,44.50
2022-10-05T20:52:39.054Z,50.90
2022-10-05T20:55:13.094Z,41.78
2022-10-05T20:57:43.564Z,36.70
2022-10-05T21:00:14.923Z,40.33
2022-10-05T21:02:44.192Z,33.88
2022-10-05T21:05:13.464Z,42.35
2022-10-05T21:07:42.899Z,38.70
2022-10-05T21:10:15.089Z,35.08
2022-10-05T21:12:44.827Z,35.83
2022-10-05T21:15:14.343Z,38.50
2022-10-05T21:17:46.217Z,34.58
2022-10-05T21:20:15.421Z,37.97
2022-10-05T21:22:44.502Z,35.10
2022-10-05T21:25:16.905Z,38.03
2022-10-05T21:27:47.230Z,30.77
2022-10-05T21:30:16.446Z,32.50
2022-10-05T21:32:45.556Z,32.40
2022-10-05T21:35:14.804Z,29.23
2022-10-05T21:37:43.892Z,34.88
2022-10-05T21:40:13.209Z,26.38
2022-10-05T21:42:45.894Z,29.92
2022-10-05T21:45:15.229Z,31.30
2022-10-05T21:47:44.641Z,27.92
2022-10-05T21:50:14.130Z,28.85
2022-10-05T21:52:43.832Z,26.67
2022-10-05T21:55:14.102Z,23.30
2022-10-05T21:57:45.008Z,26.30
2022-10-05T22:00:17.659Z,23.73
2022-10-05T22:02:47.416Z,20.63
2022-10-05T22:05:17.141Z,21.73
2022-10-05T22:07:46.550Z,26.50
2022-10-05T22:10:16.275Z,27.45
2022-10-05T22:12:49.034Z,25.50
2022-10-05T22:15:18.829Z,27.45
2022-10-05T22:17:47.983Z,29.80
2022-10-05T22:20:17.781Z,29.38
2022-10-05T22:22:47.277Z,29.48
2022-10-05T22:25:16.860Z,29.88
2022-10-05T22:27:46.549Z,32.47
2022-10-05T22:30:16.628Z,29.40
2022-10-05T22:32:48.875Z,29.38
2022-10-05T22:35:18.204Z,24.85
2022-10-05T22:37:48.149Z,25.25
2022-10-05T22:40:17.842Z,25.10
2022-10-05T22:42:47.339Z,30.58
2022-10-05T22:45:16.923Z,32.33
2022-10-05T22:47:47.249Z,32.78
2022-10-05T22:50:17.380Z,28.17
2022-10-05T22:52:53.395Z,28.85
2022-10-05T22:55:23.157Z,27.33
2022-10-05T22:57:52.372Z,31.83
2022-10-05T23:00:27.606Z,31.08
2022-10-05T23:03:00.920Z,33.40
2022-10-05T23:05:30.034Z,37.03
2022-10-05T23:07:59.124Z,29.67
2022-10-05T23:10:28.332Z,29.17
2022-10-05T23:13:01.076Z,44.28
2022-10-05T23:15:30.363Z,33.78
2022-10-05T23:18:00.098Z,29.73
2022-10-05T23:20:30.864Z,30.25
2022-10-05T23:23:01.337Z,35.95
2022-10-05T23:25:30.705Z,32.55
2022-10-05T23:28:01.418Z,28.27
2022-10-05T23:30:30.963Z,29.67
2022-10-05T23:33:00.407Z,32.50
2022-10-05T23:35:29.830Z,26.20
2022-10-05T23:38:00.583Z,29.42
2022-10-05T23:40:29.775Z,31.65
2022-10-05T23:42:59.401Z,26.30
2022-10-05T23:45:29.615Z,27.08
2022-10-05T23:48:03.015Z,28.67
2022-10-05T23:50:37.520Z,25.80
2022-10-05T23:53:08.060Z,27.02
2022-10-05T23:55:37.947Z,28.88
2022-10-05T23:58:08.010Z,27.80
